sensor_id;sensor_type;location;lat;lon;timestamp;pressure;altitude;pressure_sealevel;temperature;humidity
16834;BME280;8533;48.426;10.868;2023-05-20T00:01:15;96183.94;;;11.44;100.00
16834;BME280;8533;48.426;10.868;2023-05-20T00:03:40;96168.69;;;11.36;100.00
16834;BME280;8533;48.426;10.868;2023-05-20T00:06:06;96143.13;;;11.16;100.00
16834;BME280;8533;48.426;10.868;2023-05-20T00:08:31;96191.31;;;11.47;100.00
16834;BME280;8533;48.426;10.868;2023-05-20T00:10:56;96104.44;;;10.96;100.00
16834;BME280;8533;48.426;10.868;2023-05-20T00:13:22;96182.44;;;11.48;100.00
16834;BME280;8533;48.426;10.868;2023-05-20T00:15:48;96172.88;;;11.37;100.00
16834;BME280;8533;48.426;10.868;2023-05-20T00:18:13;96148.38;;;11.16;100.00
16834;BME280;8533;48.426;10.868;2023-05-20T00:20:38;96187.91;;;11.46;100.00
16834;BME280;8533;48.426;10.868;2023-05-20T00:23:04;96068.88;;;10.68;100.00
16834;BME280;8533;48.426;10.868;2023-05-20T00:25:29;96187.13;;;11.46;100.00
16834;BME280;8533;48.426;10.868;2023-05-20T00:27:56;96177.69;;;11.45;100.00
16834;BME280;8533;48.426;10.868;2023-05-20T00:30:21;96158.22;;;11.36;100.00
16834;BME280;8533;48.426;10.868;2023-05-20T00:32:46;96153.75;;;11.36;100.00
16834;BME280;8533;48.426;10.868;2023-05-20T00:35:12;96171.16;;;11.47;100.00
16834;BME280;8533;48.426;10.868;2023-05-20T00:37:38;96142.47;;;11.31;100.00
16834;BME280;8533;48.426;10.868;2023-05-20T00:40:03;96151.94;;;11.37;100.00
16834;BME280;8533;48.426;10.868;2023-05-20T00:42:28;96136.66;;;11.24;100.00
16834;BME280;8533;48.426;10.868;2023-05-20T00:44:54;96163.53;;;11.46;100.00
16834;BME280;8533;48.426;10.868;2023-05-20T00:47:22;96126.31;;;11.12;100.00
16834;BME280;8533;48.426;10.868;2023-05-20T00:49:50;96096.66;;;11.01;100.00
16834;BME280;8533;48.426;10.868;2023-05-20T00:52:17;96125.53;;;11.12;100.00
16834;BME280;8533;48.426;10.868;2023-05-20T00:54:42;96162.16;;;11.38;100.00
16834;BME280;8533;48.426;10.868;2023-05-20T00:57:08;96113.41;;;11.00;100.00
16834;BME280;8533;48.426;10.868;2023-05-20T00:59:35;96203.63;;;11.46;100.00
16834;BME280;8533;48.426;10.868;2023-05-20T01:02:02;96152.38;;;11.29;100.00
16834;BME280;8533;48.426;10.868;2023-05-20T01:04:27;96133.69;;;11.15;100.00
16834;BME280;8533;48.426;10.868;2023-05-20T01:06:52;96150.00;;;11.27;100.00
16834;BME280;8533;48.426;10.868;2023-05-20T01:09:19;96125.03;;;11.15;100.00
16834;BME280;8533;48.426;10.868;2023-05-20T01:11:55;96159.28;;;11.35;100.00
16834;BME280;8533;48.426;10.868;2023-05-20T01:14:26;95940.78;;;9.98;100.00
16834;BME280;8533;48.426;10.868;2023-05-20T01:16:54;96158.19;;;11.31;100.00
16834;BME280;8533;48.426;10.868;2023-05-20T01:19:30;96155.56;;;11.31;100.00
16834;BME280;8533;48.426;10.868;2023-05-20T01:22:00;96128.69;;;11.14;100.00
16834;BME280;8533;48.426;10.868;2023-05-20T01:24:27;96142.47;;;11.31;100.00
16834;BME280;8533;48.426;10.868;2023-05-20T01:26:52;96102.19;;;11.05;100.00
16834;BME280;8533;48.426;10.868;2023-05-20T01:29:18;96122.72;;;11.18;100.00
16834;BME280;8533;48.426;10.868;2023-05-20T01:31:45;96077.69;;;10.89;100.00
16834;BME280;8533;48.426;10.868;2023-05-20T01:34:11;96150.09;;;11.37;100.00
16834;BME280;8533;48.426;10.868;2023-05-20T01:36:38;96147.72;;;11.36;100.00
16834;BME280;8533;48.426;10.868;2023-05-20T01:39:04;96114.59;;;11.20;100.00
16834;BME280;8533;48.426;10.868;2023-05-20T01:41:31;96110.72;;;11.22;100.00
16834;BME280;8533;48.426;10.868;2023-05-20T01:43:59;96147.28;;;11.44;100.00
16834;BME280;8533;48.426;10.868;2023-05-20T01:46:24;96020.41;;;10.61;100.00
16834;BME280;8533;48.426;10.868;2023-05-20T01:48:50;96110.94;;;11.21;100.00
16834;BME280;8533;48.426;10.868;2023-05-20T01:51:15;96150.78;;;11.55;100.00
16834;BME280;8533;48.426;10.868;2023-05-20T01:53:41;96130.00;;;11.43;100.00
16834;BME280;8533;48.426;10.868;2023-05-20T01:56:07;96134.72;;;11.46;100.00
16834;BME280;8533;48.426;10.868;2023-05-20T01:58:32;96027.88;;;10.79;100.00
16834;BME280;8533;48.426;10.868;2023-05-20T02:00:57;96108.19;;;11.32;100.00
16834;BME280;8533;48.426;10.868;2023-05-20T02:03:23;96126.38;;;11.49;100.00
16834;BME280;8533;48.426;10.868;2023-05-20T02:05:48;96145.06;;;11.63;100.00
16834;BME280;8533;48.426;10.868;2023-05-20T02:08:13;96120.09;;;11.50;100.00
16834;BME280;8533;48.426;10.868;2023-05-20T02:10:38;96140.63;;;11.63;100.00
16834;BME280;8533;48.426;10.868;2023-05-20T02:13:04;96127.44;;;11.53;100.00
16834;BME280;8533;48.426;10.868;2023-05-20T02:15:29;96013.53;;;10.82;100.00
16834;BME280;8533;48.426;10.868;2023-05-20T02:17:54;96148.25;;;11.65;100.00
16834;BME280;8533;48.426;10.868;2023-05-20T02:20:22;96137.44;;;11.56;100.00
16834;BME280;8533;48.426;10.868;2023-05-20T02:22:47;96145.88;;;11.63;100.00
16834;BME280;8533;48.426;10.868;2023-05-20T02:25:12;96085.34;;;11.28;100.00
16834;BME280;8533;48.426;10.868;2023-05-20T02:27:38;96120.59;;;11.47;100.00
16834;BME280;8533;48.426;10.868;2023-05-20T02:30:05;96142.22;;;11.64;100.00
16834;BME280;8533;48.426;10.868;2023-05-20T02:32:31;96127.19;;;11.55;100.00
16834;BME280;8533;48.426;10.868;2023-05-20T02:34:57;96117.97;;;11.47;100.00
16834;BME280;8533;48.426;10.868;2023-05-20T02:37:22;96087.47;;;11.31;100.00
16834;BME280;8533;48.426;10.868;2023-05-20T02:39:48;96100.69;;;11.46;100.00
16834;BME280;8533;48.426;10.868;2023-05-20T02:42:13;96130.41;;;11.62;100.00
16834;BME280;8533;48.426;10.868;2023-05-20T02:44:38;96120.69;;;11.57;100.00
16834;BME280;8533;48.426;10.868;2023-05-20T02:47:04;96109.09;;;11.48;100.00
16834;BME280;8533;48.426;10.868;2023-05-20T02:49:29;96111.22;;;11.51;100.00
16834;BME280;8533;48.426;10.868;2023-05-20T02:51:54;96124.59;;;11.60;100.00
16834;BME280;8533;48.426;10.868;2023-05-20T02:54:20;96115.44;;;11.57;100.00
16834;BME280;8533;48.426;10.868;2023-05-20T02:56:45;96109.34;;;11.52;100.00
16834;BME280;8533;48.426;10.868;2023-05-20T02:59:10;96135.38;;;11.63;100.00
16834;BME280;8533;48.426;10.868;2023-05-20T03:01:36;96137.47;;;11.61;100.00
16834;BME280;8533;48.426;10.868;2023-05-20T03:04:02;96130.91;;;11.59;100.00
16834;BME280;8533;48.426;10.868;2023-05-20T03:06:27;96120.13;;;11.55;100.00
16834;BME280;8533;48.426;10.868;2023-05-20T03:08:54;96117.53;;;11.55;100.00
16834;BME280;8533;48.426;10.868;2023-05-20T03:11:19;96024.31;;;10.90;100.00
16834;BME280;8533;48.426;10.868;2023-05-20T03:13:45;96100.88;;;11.34;100.00
16834;BME280;8533;48.426;10.868;2023-05-20T03:16:11;96097.94;;;11.26;100.00
16834;BME280;8533;48.426;10.868;2023-05-20T03:18:37;96108.66;;;11.29;100.00
16834;BME280;8533;48.426;10.868;2023-05-20T03:21:02;96096.34;;;11.25;100.00
16834;BME280;8533;48.426;10.868;2023-05-20T03:23:28;96129.00;;;11.49;100.00
16834;BME280;8533;48.426;10.868;2023-05-20T03:25:53;96116.31;;;11.36;100.00
16834;BME280;8533;48.426;10.868;2023-05-20T03:28:19;96078.97;;;11.14;100.00
16834;BME280;8533;48.426;10.868;2023-05-20T03:30:44;96134.28;;;11.54;100.00
16834;BME280;8533;48.426;10.868;2023-05-20T03:33:09;96096.38;;;11.30;100.00
16834;BME280;8533;48.426;10.868;2023-05-20T03:35:34;96131.88;;;11.47;100.00
16834;BME280;8533;48.426;10.868;2023-05-20T03:38:00;96138.78;;;11.59;100.00
16834;BME280;8533;48.426;10.868;2023-05-20T03:40:26;96145.84;;;11.58;100.00
16834;BME280;8533;48.426;10.868;2023-05-20T03:42:51;96129.25;;;11.47;100.00
16834;BME280;8533;48.426;10.868;2023-05-20T03:45:16;96148.47;;;11.58;100.00
16834;BME280;8533;48.426;10.868;2023-05-20T03:47:42;96135.06;;;11.55;100.00
16834;BME280;8533;48.426;10.868;2023-05-20T03:50:07;96151.09;;;11.58;100.00
16834;BME280;8533;48.426;10.868;2023-05-20T03:52:33;96124.25;;;11.46;100.00
16834;BME280;8533;48.426;10.868;2023-05-20T03:54:58;96104.31;;;11.40;100.00
16834;BME280;8533;48.426;10.868;2023-05-20T03:57:24;96120.09;;;11.50;100.00
16834;BME280;8533;48.426;10.868;2023-05-20T03:59:50;96093.75;;;11.30;100.00
16834;BME280;8533;48.426;10.868;2023-05-20T04:02:15;96091.94;;;11.35;100.00
16834;BME280;8533;48.426;10.868;2023-05-20T04:04:40;96121.97;;;11.55;100.00
16834;BME280;8533;48.426;10.868;2023-05-20T04:07:09;96134.84;;;11.61;100.00
16834;BME280;8533;48.426;10.868;2023-05-20T04:09:35;96122.00;;;11.60;100.00
16834;BME280;8533;48.426;10.868;2023-05-20T04:12:00;96086.19;;;11.33;100.00
16834;BME280;8533;48.426;10.868;2023-05-20T04:14:25;96134.34;;;11.64;100.00
16834;BME280;8533;48.426;10.868;2023-05-20T04:16:51;96072.78;;;11.25;100.00
16834;BME280;8533;48.426;10.868;2023-05-20T04:19:16;96064.91;;;11.25;100.00
16834;BME280;8533;48.426;10.868;2023-05-20T04:21:43;96137.78;;;11.70;100.00
16834;BME280;8533;48.426;10.868;2023-05-20T04:24:09;96089.59;;;11.34;100.00
16834;BME280;8533;48.426;10.868;2023-05-20T04:26:34;96121.75;;;11.61;100.00
16834;BME280;8533;48.426;10.868;2023-05-20T04:29:01;96166.34;;;11.66;100.00
16834;BME280;8533;48.426;10.868;2023-05-20T04:31:28;96132.28;;;11.66;100.00
16834;BME280;8533;48.426;10.868;2023-05-20T04:33:55;96130.72;;;11.70;100.00
16834;BME280;8533;48.426;10.868;2023-05-20T04:36:20;96128.09;;;11.70;100.00
16834;BME280;8533;48.426;10.868;2023-05-20T04:38:46;96082.59;;;11.44;100.00
16834;BME280;8533;48.426;10.868;2023-05-20T04:41:12;96128.66;;;11.72;100.00
16834;BME280;8533;48.426;10.868;2023-05-20T04:43:37;96130.91;;;11.59;100.00
16834;BME280;8533;48.426;10.868;2023-05-20T04:46:04;96123.09;;;11.69;100.00
16834;BME280;8533;48.426;10.868;2023-05-20T04:48:30;96120.75;;;11.67;100.00
16834;BME280;8533;48.426;10.868;2023-05-20T04:50:56;96133.63;;;11.74;100.00
16834;BME280;8533;48.426;10.868;2023-05-20T04:53:22;96128.94;;;11.76;100.00
16834;BME280;8533;48.426;10.868;2023-05-20T04:55:47;96101.56;;;11.62;100.00
16834;BME280;8533;48.426;10.868;2023-05-20T04:58:14;96124.50;;;11.76;100.00
16834;BME280;8533;48.426;10.868;2023-05-20T05:00:41;96109.25;;;11.73;100.00
16834;BME280;8533;48.426;10.868;2023-05-20T05:03:07;96110.06;;;11.74;100.00
16834;BME280;8533;48.426;10.868;2023-05-20T05:05:35;96105.31;;;11.71;100.00
16834;BME280;8533;48.426;10.868;2023-05-20T05:08:05;96115.09;;;11.80;100.00
16834;BME280;8533;48.426;10.868;2023-05-20T05:10:31;96095.84;;;11.65;100.00
16834;BME280;8533;48.426;10.868;2023-05-20T05:12:56;96103.72;;;11.70;100.00
16834;BME280;8533;48.426;10.868;2023-05-20T05:15:22;96118.63;;;11.64;100.00
16834;BME280;8533;48.426;10.868;2023-05-20T05:17:47;96103.03;;;11.79;100.00
16834;BME280;8533;48.426;10.868;2023-05-20T05:20:13;96094.59;;;11.72;100.00
16834;BME280;8533;48.426;10.868;2023-05-20T05:22:38;96110.66;;;11.81;100.00
16834;BME280;8533;48.426;10.868;2023-05-20T05:25:06;96127.50;;;11.95;100.00
16834;BME280;8533;48.426;10.868;2023-05-20T05:27:31;96113.53;;;11.79;100.00
16834;BME280;8533;48.426;10.868;2023-05-20T05:29:57;96122.50;;;11.94;100.00
16834;BME280;8533;48.426;10.868;2023-05-20T05:32:22;96109.06;;;11.75;100.00
16834;BME280;8533;48.426;10.868;2023-05-20T05:34:47;96127.25;;;11.92;100.00
16834;BME280;8533;48.426;10.868;2023-05-20T05:37:13;96125.09;;;11.83;100.00
16834;BME280;8533;48.426;10.868;2023-05-20T05:39:38;96097.69;;;11.64;100.00
16834;BME280;8533;48.426;10.868;2023-05-20T05:42:03;96112.13;;;11.72;100.00
16834;BME280;8533;48.426;10.868;2023-05-20T05:44:30;96113.78;;;11.78;100.00
16834;BME280;8533;48.426;10.868;2023-05-20T05:46:55;96114.88;;;11.87;100.00
16834;BME280;8533;48.426;10.868;2023-05-20T05:49:20;96067.19;;;11.48;100.00
16834;BME280;8533;48.426;10.868;2023-05-20T05:51:46;96062.16;;;11.41;100.00
16834;BME280;8533;48.426;10.868;2023-05-20T05:54:11;95984.28;;;10.90;100.00
16834;BME280;8533;48.426;10.868;2023-05-20T05:56:36;95953.03;;;10.73;100.00
16834;BME280;8533;48.426;10.868;2023-05-20T05:59:02;96115.53;;;11.72;100.00
16834;BME280;8533;48.426;10.868;2023-05-20T06:01:28;96103.03;;;11.74;100.00
16834;BME280;8533;48.426;10.868;2023-05-20T06:03:53;96110.13;;;11.84;100.00
16834;BME280;8533;48.426;10.868;2023-05-20T06:06:18;96069.81;;;11.53;100.00
16834;BME280;8533;48.426;10.868;2023-05-20T06:08:43;96112.25;;;11.82;100.00
16834;BME280;8533;48.426;10.868;2023-05-20T06:11:09;96101.75;;;11.82;100.00
16834;BME280;8533;48.426;10.868;2023-05-20T06:13:35;96111.50;;;11.92;100.00
16834;BME280;8533;48.426;10.868;2023-05-20T06:16:00;96105.50;;;12.01;100.00
16834;BME280;8533;48.426;10.868;2023-05-20T06:18:25;96084.78;;;11.95;100.00
16834;BME280;8533;48.426;10.868;2023-05-20T06:20:55;96065.19;;;11.65;100.00
16834;BME280;8533;48.426;10.868;2023-05-20T06:23:21;96105.00;;;11.99;100.00
16834;BME280;8533;48.426;10.868;2023-05-20T06:25:46;96112.69;;;12.16;100.00
16834;BME280;8533;48.426;10.868;2023-05-20T06:28:12;96098.97;;;12.04;100.00
16834;BME280;8533;48.426;10.868;2023-05-20T06:30:38;96107.88;;;11.98;100.00
16834;BME280;8533;48.426;10.868;2023-05-20T06:33:03;96113.66;;;12.05;100.00
16834;BME280;8533;48.426;10.868;2023-05-20T06:35:28;96063.75;;;11.84;100.00
16834;BME280;8533;48.426;10.868;2023-05-20T06:37:54;96100.63;;;12.15;100.00
16834;BME280;8533;48.426;10.868;2023-05-20T06:40:19;96116.44;;;12.35;100.00
16834;BME280;8533;48.426;10.868;2023-05-20T06:42:45;96117.47;;;12.34;100.00
16834;BME280;8533;48.426;10.868;2023-05-20T06:45:10;96118.56;;;12.43;100.00
16834;BME280;8533;48.426;10.868;2023-05-20T06:47:35;96062.78;;;12.01;100.00
16834;BME280;8533;48.426;10.868;2023-05-20T06:50:02;96120.44;;;12.48;100.00
16834;BME280;8533;48.426;10.868;2023-05-20T06:52:27;96087.63;;;12.50;100.00
16834;BME280;8533;48.426;10.868;2023-05-20T06:54:52;96099.25;;;12.85;100.00
16834;BME280;8533;48.426;10.868;2023-05-20T06:57:17;96097.69;;;12.84;100.00
16834;BME280;8533;48.426;10.868;2023-05-20T06:59:43;96082.44;;;12.76;100.00
16834;BME280;8533;48.426;10.868;2023-05-20T07:02:08;96020.75;;;12.58;100.00
16834;BME280;8533;48.426;10.868;2023-05-20T07:04:33;96097.22;;;13.12;100.00
16834;BME280;8533;48.426;10.868;2023-05-20T07:06:59;96103.00;;;13.14;100.00
16834;BME280;8533;48.426;10.868;2023-05-20T07:09:24;96102.22;;;13.24;100.00
16834;BME280;8533;48.426;10.868;2023-05-20T07:11:49;96026.81;;;12.94;100.00
16834;BME280;8533;48.426;10.868;2023-05-20T07:14:15;96078.84;;;13.22;100.00
16834;BME280;8533;48.426;10.868;2023-05-20T07:16:40;96008.41;;;12.58;100.00
16834;BME280;8533;48.426;10.868;2023-05-20T07:19:05;96091.72;;;13.14;100.00
16834;BME280;8533;48.426;10.868;2023-05-20T07:21:30;96092.75;;;13.23;100.00
16834;BME280;8533;48.426;10.868;2023-05-20T07:23:56;96085.69;;;13.23;100.00
16834;BME280;8533;48.426;10.868;2023-05-20T07:26:21;96088.84;;;13.35;100.00
16834;BME280;8533;48.426;10.868;2023-05-20T07:28:46;96082.00;;;13.60;100.00
16834;BME280;8533;48.426;10.868;2023-05-20T07:31:12;96080.69;;;13.57;100.00
16834;BME280;8533;48.426;10.868;2023-05-20T07:33:37;96064.09;;;13.67;100.00
16834;BME280;8533;48.426;10.868;2023-05-20T07:36:03;96016.81;;;13.62;100.00
16834;BME280;8533;48.426;10.868;2023-05-20T07:38:28;96067.19;;;13.99;100.00
16834;BME280;8533;48.426;10.868;2023-05-20T07:40:54;96053.59;;;13.67;100.00
16834;BME280;8533;48.426;10.868;2023-05-20T07:43:19;96045.44;;;13.68;100.00
16834;BME280;8533;48.426;10.868;2023-05-20T07:45:44;96063.03;;;13.83;100.00
16834;BME280;8533;48.426;10.868;2023-05-20T07:48:10;96050.34;;;13.95;100.00
16834;BME280;8533;48.426;10.868;2023-05-20T07:50:37;96073.91;;;14.41;100.00
16834;BME280;8533;48.426;10.868;2023-05-20T07:53:03;96058.78;;;14.67;100.00
16834;BME280;8533;48.426;10.868;2023-05-20T07:55:28;96042.31;;;14.85;100.00
16834;BME280;8533;48.426;10.868;2023-05-20T07:57:55;96041.34;;;14.71;100.00
16834;BME280;8533;48.426;10.868;2023-05-20T08:00:20;96048.47;;;14.70;100.00
16834;BME280;8533;48.426;10.868;2023-05-20T08:02:45;96001.81;;;14.32;100.00
16834;BME280;8533;48.426;10.868;2023-05-20T08:05:11;96050.56;;;14.73;100.00
16834;BME280;8533;48.426;10.868;2023-05-20T08:07:36;96035.19;;;14.91;100.00
16834;BME280;8533;48.426;10.868;2023-05-20T08:10:02;96040.50;;;15.48;100.00
16834;BME280;8533;48.426;10.868;2023-05-20T08:12:28;96039.63;;;15.58;100.00
16834;BME280;8533;48.426;10.868;2023-05-20T08:14:53;96023.63;;;15.78;100.00
16834;BME280;8533;48.426;10.868;2023-05-20T08:17:18;96029.34;;;16.09;100.00
16834;BME280;8533;48.426;10.868;2023-05-20T08:19:44;95977.66;;;15.84;100.00
16834;BME280;8533;48.426;10.868;2023-05-20T08:22:09;96040.41;;;16.30;100.00
16834;BME280;8533;48.426;10.868;2023-05-20T08:24:34;96037.50;;;16.31;100.00
16834;BME280;8533;48.426;10.868;2023-05-20T08:27:00;96039.16;;;16.70;100.00
16834;BME280;8533;48.426;10.868;2023-05-20T08:29:25;96045.47;;;17.06;98.65
16834;BME280;8533;48.426;10.868;2023-05-20T08:31:51;96036.38;;;17.45;93.32
16834;BME280;8533;48.426;10.868;2023-05-20T08:34:16;96037.34;;;17.95;89.19
16834;BME280;8533;48.426;10.868;2023-05-20T08:36:41;96044.81;;;17.93;88.41
16834;BME280;8533;48.426;10.868;2023-05-20T08:39:09;96039.50;;;17.66;89.53
16834;BME280;8533;48.426;10.868;2023-05-20T08:41:35;96037.81;;;17.24;92.64
16834;BME280;8533;48.426;10.868;2023-05-20T08:44:02;96041.28;;;17.19;89.94
16834;BME280;8533;48.426;10.868;2023-05-20T08:46:29;96021.78;;;17.47;92.61
16834;BME280;8533;48.426;10.868;2023-05-20T08:48:55;96003.28;;;17.61;88.63
16834;BME280;8533;48.426;10.868;2023-05-20T08:51:21;96032.06;;;17.81;87.61
16834;BME280;8533;48.426;10.868;2023-05-20T08:53:48;96038.72;;;18.34;91.34
16834;BME280;8533;48.426;10.868;2023-05-20T08:56:14;96035.28;;;18.47;87.09
16834;BME280;8533;48.426;10.868;2023-05-20T08:58:40;96038.50;;;18.44;89.79
16834;BME280;8533;48.426;10.868;2023-05-20T09:01:07;96042.72;;;18.72;89.29
16834;BME280;8533;48.426;10.868;2023-05-20T09:03:32;95980.22;;;18.44;81.30
16834;BME280;8533;48.426;10.868;2023-05-20T09:06:07;96019.97;;;18.57;89.25
16834;BME280;8533;48.426;10.868;2023-05-20T09:08:33;95985.53;;;18.44;83.16
16834;BME280;8533;48.426;10.868;2023-05-20T09:10:59;96021.09;;;18.79;82.67
16834;BME280;8533;48.426;10.868;2023-05-20T09:13:26;96052.06;;;18.92;81.35
16834;BME280;8533;48.426;10.868;2023-05-20T09:15:51;96021.38;;;19.66;79.03
16834;BME280;8533;48.426;10.868;2023-05-20T09:18:17;95995.72;;;19.53;77.91
16834;BME280;8533;48.426;10.868;2023-05-20T09:20:45;96023.03;;;18.87;79.22
16834;BME280;8533;48.426;10.868;2023-05-20T09:23:11;96025.97;;;18.36;81.33
16834;BME280;8533;48.426;10.868;2023-05-20T09:25:36;96024.81;;;18.14;83.04
16834;BME280;8533;48.426;10.868;2023-05-20T09:28:06;95887.97;;;17.60;82.19
16834;BME280;8533;48.426;10.868;2023-05-20T09:30:32;95878.00;;;18.43;80.50
16834;BME280;8533;48.426;10.868;2023-05-20T09:32:59;96015.09;;;19.54;75.39
16834;BME280;8533;48.426;10.868;2023-05-20T09:35:26;95978.66;;;19.23;79.08
16834;BME280;8533;48.426;10.868;2023-05-20T09:37:54;96010.25;;;19.33;75.95
16834;BME280;8533;48.426;10.868;2023-05-20T09:40:26;96019.03;;;19.42;75.72
16834;BME280;8533;48.426;10.868;2023-05-20T09:42:56;96013.16;;;19.01;75.98
16834;BME280;8533;48.426;10.868;2023-05-20T09:45:23;95991.13;;;19.23;76.88
16834;BME280;8533;48.426;10.868;2023-05-20T09:47:53;96012.38;;;19.00;75.20
16834;BME280;8533;48.426;10.868;2023-05-20T09:50:19;96012.69;;;19.21;78.52
16834;BME280;8533;48.426;10.868;2023-05-20T09:52:51;96019.75;;;18.90;77.60
16834;BME280;8533;48.426;10.868;2023-05-20T09:55:18;96020.00;;;18.80;78.17
16834;BME280;8533;48.426;10.868;2023-05-20T09:57:44;96018.03;;;19.08;80.83
16834;BME280;8533;48.426;10.868;2023-05-20T10:00:10;96007.00;;;19.36;77.31
16834;BME280;8533;48.426;10.868;2023-05-20T10:02:43;95999.75;;;19.06;78.09
16834;BME280;8533;48.426;10.868;2023-05-20T10:05:14;95960.81;;;18.48;77.95
16834;BME280;8533;48.426;10.868;2023-05-20T10:08:12;95997.97;;;18.93;78.24
16834;BME280;8533;48.426;10.868;2023-05-20T10:16:00;95955.75;;;19.27;74.27
16834;BME280;8533;48.426;10.868;2023-05-20T10:18:53;95995.09;;;19.56;73.92
16834;BME280;8533;48.426;10.868;2023-05-20T10:21:23;95985.69;;;19.81;70.88
16834;BME280;8533;48.426;10.868;2023-05-20T10:23:49;95981.06;;;19.64;73.48
16834;BME280;8533;48.426;10.868;2023-05-20T10:26:14;95914.03;;;19.11;73.46
16834;BME280;8533;48.426;10.868;2023-05-20T10:28:40;95973.50;;;19.18;72.94
16834;BME280;8533;48.426;10.868;2023-05-20T10:31:22;95989.16;;;19.06;74.74
16834;BME280;8533;48.426;10.868;2023-05-20T10:33:51;95976.56;;;19.12;77.44
16834;BME280;8533;48.426;10.868;2023-05-20T10:36:26;95980.19;;;19.47;76.26
16834;BME280;8533;48.426;10.868;2023-05-20T10:38:54;96026.47;;;19.85;74.15
16834;BME280;8533;48.426;10.868;2023-05-20T10:41:21;95975.84;;;20.47;74.30
16834;BME280;8533;48.426;10.868;2023-05-20T10:43:58;95919.34;;;19.98;71.59
16834;BME280;8533;48.426;10.868;2023-05-20T10:46:23;95965.53;;;21.23;69.53
16834;BME280;8533;48.426;10.868;2023-05-20T10:48:49;95941.59;;;20.88;69.18
16834;BME280;8533;48.426;10.868;2023-05-20T10:51:14;95970.69;;;20.85;69.13
16834;BME280;8533;48.426;10.868;2023-05-20T10:53:44;95959.28;;;20.50;67.89
16834;BME280;8533;48.426;10.868;2023-05-20T10:56:17;95964.44;;;20.89;68.52
16834;BME280;8533;48.426;10.868;2023-05-20T10:58:43;95972.53;;;21.10;67.16
16834;BME280;8533;48.426;10.868;2023-05-20T11:01:09;95971.34;;;21.63;63.28
16834;BME280;8533;48.426;10.868;2023-05-20T11:03:35;95917.34;;;20.30;65.59
16834;BME280;8533;48.426;10.868;2023-05-20T11:06:01;95947.19;;;20.18;68.29
16834;BME280;8533;48.426;10.868;2023-05-20T11:08:28;95947.50;;;20.16;68.31
16834;BME280;8533;48.426;10.868;2023-05-20T11:10:56;95893.28;;;20.00;69.79
16834;BME280;8533;48.426;10.868;2023-05-20T11:13:21;95934.13;;;20.56;69.09
16834;BME280;8533;48.426;10.868;2023-05-20T11:15:48;95941.25;;;20.30;68.34
16834;BME280;8533;48.426;10.868;2023-05-20T11:18:13;95900.78;;;20.15;67.20
16834;BME280;8533;48.426;10.868;2023-05-20T11:20:39;95908.88;;;19.93;67.88
16834;BME280;8533;48.426;10.868;2023-05-20T11:23:05;95924.50;;;20.03;68.38
16834;BME280;8533;48.426;10.868;2023-05-20T11:25:41;95938.75;;;20.07;66.87
16834;BME280;8533;48.426;10.868;2023-05-20T11:28:13;95838.03;;;19.46;65.46
16834;BME280;8533;48.426;10.868;2023-05-20T11:30:39;95913.59;;;20.13;65.49
16834;BME280;8533;48.426;10.868;2023-05-20T11:33:05;95919.22;;;20.20;65.33
16834;BME280;8533;48.426;10.868;2023-05-20T11:35:31;95933.63;;;20.80;65.21
16834;BME280;8533;48.426;10.868;2023-05-20T11:38:03;95886.88;;;20.70;65.24
16834;BME280;8533;48.426;10.868;2023-05-20T11:40:31;95875.66;;;21.28;63.83
16834;BME280;8533;48.426;10.868;2023-05-20T11:43:01;95907.63;;;21.87;63.41
16834;BME280;8533;48.426;10.868;2023-05-20T11:45:37;95967.28;;;22.03;61.28
16834;BME280;8533;48.426;10.868;2023-05-20T11:48:03;95912.69;;;22.30;59.56
16834;BME280;8533;48.426;10.868;2023-05-20T11:50:39;95925.16;;;21.97;61.15
16834;BME280;8533;48.426;10.868;2023-05-20T11:53:07;95896.44;;;22.23;62.31
16834;BME280;8533;48.426;10.868;2023-05-20T11:55:33;95870.94;;;21.93;63.55
16834;BME280;8533;48.426;10.868;2023-05-20T11:58:00;95897.13;;;21.23;60.42
16834;BME280;8533;48.426;10.868;2023-05-20T12:00:27;95911.50;;;21.14;62.97
16834;BME280;8533;48.426;10.868;2023-05-20T12:02:52;95915.09;;;21.26;61.48
16834;BME280;8533;48.426;10.868;2023-05-20T12:05:17;95876.78;;;21.10;63.86
16834;BME280;8533;48.426;10.868;2023-05-20T12:07:43;95913.41;;;21.89;60.90
16834;BME280;8533;48.426;10.868;2023-05-20T12:10:09;95913.88;;;22.21;58.80
16834;BME280;8533;48.426;10.868;2023-05-20T12:12:34;95900.41;;;22.59;59.08
16834;BME280;8533;48.426;10.868;2023-05-20T12:15:04;95893.06;;;22.35;57.93
16834;BME280;8533;48.426;10.868;2023-05-20T12:17:31;95896.19;;;22.16;57.54
16834;BME280;8533;48.426;10.868;2023-05-20T12:19:56;95898.59;;;22.51;58.07
16834;BME280;8533;48.426;10.868;2023-05-20T12:22:22;95884.66;;;22.99;55.27
16834;BME280;8533;48.426;10.868;2023-05-20T12:24:48;95882.78;;;23.11;53.45
16834;BME280;8533;48.426;10.868;2023-05-20T12:27:13;95796.16;;;21.56;54.46
16834;BME280;8533;48.426;10.868;2023-05-20T12:29:38;95838.88;;;22.10;55.61
16834;BME280;8533;48.426;10.868;2023-05-20T12:32:04;95858.28;;;22.85;53.79
16834;BME280;8533;48.426;10.868;2023-05-20T12:34:29;95860.47;;;23.16;55.86
16834;BME280;8533;48.426;10.868;2023-05-20T12:36:55;95881.50;;;23.42;55.55
16834;BME280;8533;48.426;10.868;2023-05-20T12:39:20;95873.69;;;23.12;55.18
16834;BME280;8533;48.426;10.868;2023-05-20T12:41:45;95773.13;;;22.02;55.98
16834;BME280;8533;48.426;10.868;2023-05-20T12:44:10;95897.53;;;22.22;58.16
16834;BME280;8533;48.426;10.868;2023-05-20T12:46:36;95782.63;;;21.82;57.36
16834;BME280;8533;48.426;10.868;2023-05-20T12:49:01;95879.41;;;22.36;57.46
16834;BME280;8533;48.426;10.868;2023-05-20T12:51:27;95782.53;;;22.20;56.33
16834;BME280;8533;48.426;10.868;2023-05-20T12:53:52;95882.38;;;22.56;55.84